Time;durP1;ratioP1;P1;durP2;ratioP2;P2;SDS_P1;SDS_P2;PMS_P1;PMS_P2;Temp;Humidity;BMP_temperature;BMP_pressure;BME280_temperature;BME280_humidity;BME280_pressure;Samples;Min_cycle;Max_cycle;Signal;HPM_P1;HPM_P2
2023/08/09 00:00:59;;;;;;;12.70;3.13;;;;;;;11.19;100.00;100266.16;5011483;28;20033;-78
2023/08/09 00:03:24;;;;;;;9.90;3.20;;;;;;;11.22;100.00;100264.16;4995314;28;20026;-78
2023/08/09 00:05:50;;;;;;;20.27;3.20;;;;;;;11.17;100.00;100270.03;5031293;28;20280;-79
2023/08/09 00:08:15;;;;;;;13.63;3.53;;;;;;;11.19;100.00;100268.84;5028320;28;20025;-77
2023/08/09 00:10:40;;;;;;;17.67;2.70;;;;;;;11.18;100.00;100275.19;5023712;28;20366;-78
2023/08/09 00:13:07;;;;;;;10.03;2.97;;;;;;;11.18;100.00;100277.03;5033220;28;20116;-77
2023/08/09 00:15:32;;;;;;;13.75;2.72;;;;;;;11.16;100.00;100271.03;5032102;28;20041;-77
2023/08/09 00:17:58;;;;;;;16.23;2.70;;;;;;;11.14;100.00;100257.88;5030758;28;20059;-78
2023/08/09 00:20:23;;;;;;;14.43;2.75;;;;;;;11.14;100.00;100265.03;5015185;28;20309;-78
2023/08/09 00:22:49;;;;;;;10.10;2.97;;;;;;;11.17;100.00;100267.34;5017799;28;20033;-78
2023/08/09 00:25:15;;;;;;;10.38;2.80;;;;;;;11.12;100.00;100272.38;5042750;22;20136;-80
2023/08/09 00:27:42;;;;;;;14.00;2.90;;;;;;;11.08;100.00;100273.75;4991843;28;20579;-77
2023/08/09 00:30:10;;;;;;;17.92;4.38;;;;;;;11.08;100.00;100273.75;5008487;28;20033;-77
2023/08/09 00:32:36;;;;;;;16.65;3.70;;;;;;;11.07;100.00;100277.44;5005820;28;20032;-76
2023/08/09 00:35:03;;;;;;;15.02;3.13;;;;;;;11.04;100.00;100269.78;4975526;28;20105;-78
2023/08/09 00:37:29;;;;;;;15.40;2.72;;;;;;;11.08;100.00;100271.09;5021616;28;20028;-79
2023/08/09 00:39:54;;;;;;;18.92;2.60;;;;;;;11.05;100.00;100272.28;5008089;28;20415;-79
2023/08/09 00:42:19;;;;;;;11.80;3.00;;;;;;;11.02;100.00;100275.28;5007314;28;20049;-79
2023/08/09 00:44:45;;;;;;;13.33;2.63;;;;;;;11.04;100.00;100280.47;5007507;28;20207;-80
2023/08/09 00:47:10;;;;;;;9.43;2.40;;;;;;;11.05;100.00;100274.09;5021733;28;20036;-78
2023/08/09 00:49:37;;;;;;;20.50;3.07;;;;;;;11.05;100.00;100274.97;5007668;28;20100;-77
2023/08/09 00:52:03;;;;;;;14.82;3.30;;;;;;;11.04;100.00;100275.13;5008489;28;20809;-77
2023/08/09 00:54:29;;;;;;;18.23;3.22;;;;;;;11.06;100.00;100278.44;4989493;28;20045;-78
2023/08/09 00:56:55;;;;;;;9.52;2.90;;;;;;;11.05;100.00;100276.78;5008338;28;20025;-78
2023/08/09 00:59:20;;;;;;;14.50;3.63;;;;;;;11.03;100.00;100278.78;5007270;28;20037;-76
2023/08/09 01:01:46;;;;;;;10.70;3.60;;;;;;;10.98;100.00;100290.84;4991982;28;20391;-76
2023/08/09 01:04:12;;;;;;;18.23;4.68;;;;;;;11.03;100.00;100287.66;5007775;28;20126;-78
2023/08/09 01:07:13;;;;;;;17.27;2.73;;;;;;;11.02;100.00;100285.16;5009728;28;20104;-80
2023/08/09 01:09:50;;;;;;;10.02;2.50;;;;;;;11.03;100.00;100284.97;5024478;28;20431;-79
2023/08/09 01:12:27;;;;;;;13.93;2.50;;;;;;;11.04;100.00;100281.28;4990120;28;20038;-77
2023/08/09 01:14:57;;;;;;;20.02;4.00;;;;;;;11.03;100.00;100284.13;5003078;28;20030;-79
2023/08/09 01:17:26;;;;;;;13.60;2.70;;;;;;;10.97;100.00;100280.34;5008564;28;20029;-77
2023/08/09 01:19:55;;;;;;;9.13;2.38;;;;;;;10.97;100.00;100280.34;5008538;28;20410;-79
2023/08/09 01:22:22;;;;;;;15.27;2.97;;;;;;;10.96;100.00;100279.50;5000636;28;20080;-78
2023/08/09 01:24:49;;;;;;;18.88;2.97;;;;;;;10.92;100.00;100283.53;5008728;28;20053;-80
2023/08/09 01:27:18;;;;;;;8.48;2.60;;;;;;;10.98;100.00;100288.19;5007855;28;20034;-79
2023/08/09 01:29:44;;;;;;;9.40;2.90;;;;;;;10.98;100.00;100279.34;5007584;28;20028;-78
2023/08/09 01:32:11;;;;;;;;;;;;;;;11.09;100.00;100289.59;5021498;28;20488;-78
2023/08/09 01:34:37;;;;;;;8.65;2.50;;;;;;;11.01;100.00;100276.31;4990116;28;19913;-78
2023/08/09 01:37:28;;;;;;;15.77;2.58;;;;;;;10.94;100.00;100283.38;5008560;28;20057;-80
2023/08/09 01:39:57;;;;;;;18.52;3.00;;;;;;;10.91;100.00;100286.38;4977175;28;20405;-79
2023/08/09 01:42:23;;;;;;;16.45;3.08;;;;;;;10.94;100.00;100286.88;5020851;28;20440;-77
2023/08/09 01:44:49;;;;;;;13.85;3.67;;;;;;;10.99;100.00;100295.16;5006089;28;20041;-77
2023/08/09 01:47:16;;;;;;;11.70;2.80;;;;;;;10.93;100.00;100281.69;5007621;28;20437;-77
2023/08/09 01:49:48;;;;;;;11.77;2.78;;;;;;;10.96;100.00;100284.03;5023945;28;20034;-78
2023/08/09 01:52:14;;;;;;;10.65;2.60;;;;;;;10.97;100.00;100273.16;5006901;28;20037;-78
2023/08/09 01:54:40;;;;;;;;;;;;;;;11.07;100.00;100286.28;5007250;28;20048;-79
2023/08/09 01:57:06;;;;;;;16.42;3.58;;;;;;;10.92;100.00;100283.53;4990943;28;19964;-79
2023/08/09 01:59:31;;;;;;;11.43;2.70;;;;;;;10.88;100.00;100276.88;5006300;28;20057;-78
2023/08/09 02:02:01;;;;;;;15.60;2.70;;;;;;;10.93;100.00;100284.34;5007419;28;20025;-77
2023/08/09 02:04:26;;;;;;;10.65;2.53;;;;;;;10.92;100.00;100288.06;5019424;28;20050;-78
2023/08/09 02:06:52;;;;;;;10.90;3.17;;;;;;;10.88;100.00;100284.06;5007735;28;20026;-78
2023/08/09 02:09:17;;;;;;;11.60;2.60;;;;;;;10.85;100.00;100279.06;5006215;28;20469;-78
2023/08/09 02:11:43;;;;;;;12.52;2.47;;;;;;;10.84;100.00;100280.91;5006823;28;20080;-77
2023/08/09 02:14:09;;;;;;;14.43;2.87;;;;;;;10.91;100.00;100281.88;5006677;28;20045;-79
2023/08/09 02:16:34;;;;;;;18.27;3.13;;;;;;;10.90;100.00;100279.38;5007014;28;20483;-79
2023/08/09 02:19:00;;;;;;;13.50;3.33;;;;;;;10.93;100.00;100279.88;4990779;28;20029;-78
2023/08/09 02:21:26;;;;;;;11.07;2.15;;;;;;;10.91;100.00;100276.53;5009479;28;20649;-78
2023/08/09 02:23:51;;;;;;;13.27;2.63;;;;;;;10.91;100.00;100276.53;5022477;28;20033;-77
2023/08/09 02:26:18;;;;;;;11.57;2.83;;;;;;;10.89;100.00;100273.22;5022882;28;20416;-79
2023/08/09 02:28:44;;;;;;;11.27;2.75;;;;;;;10.88;100.00;100287.56;5006831;28;20416;-77
2023/08/09 02:31:10;;;;;;;;;;;;;;;10.96;100.00;100290.19;5007847;28;20443;-78
2023/08/09 02:33:37;;;;;;;12.40;2.85;;;;;;;10.85;100.00;100293.25;5008218;28;20000;-79
2023/08/09 02:36:03;;;;;;;14.05;2.22;;;;;;;10.90;100.00;100279.38;5006674;28;20132;-79
2023/08/09 02:38:29;;;;;;;21.48;4.20;;;;;;;10.94;100.00;100283.38;5006441;28;20034;-79
2023/08/09 02:40:55;;;;;;;14.50;3.00;;;;;;;10.84;100.00;100290.75;4990290;28;20033;-78
2023/08/09 02:43:23;;;;;;;;;;;;;;;10.82;100.00;100293.63;5023244;28;20120;-77
2023/08/09 02:45:50;;;;;;;16.58;2.88;;;;;;;10.88;100.00;100303.56;5022645;28;19913;-78
2023/08/09 02:48:16;;;;;;;13.32;2.60;;;;;;;10.78;100.00;100292.28;5004593;28;20615;-78
2023/08/09 02:50:42;;;;;;;14.98;2.50;;;;;;;10.78;100.00;100298.47;5006385;28;20037;-79
2023/08/09 02:53:08;;;;;;;10.02;2.50;;;;;;;10.75;100.00;100295.31;5019549;28;20078;-77
2023/08/09 02:55:34;;;;;;;;;;;;;;;10.80;100.00;100300.13;5020861;28;20037;-79
2023/08/09 02:58:00;;;;;;;;;;;;;;;10.77;100.00;100298.66;5006700;28;19909;-79
2023/08/09 03:00:25;;;;;;;;;;;;;;;10.74;100.00;100296.31;4990807;28;20501;-78
2023/08/09 03:02:51;;;;;;;12.93;2.15;;;;;;;10.81;100.00;100299.94;5006939;28;19917;-76
2023/08/09 03:05:16;;;;;;;9.83;2.67;;;;;;;10.82;100.00;100301.63;4987987;28;20026;-77
2023/08/09 03:07:42;;;;;;;12.13;2.47;;;;;;;10.82;100.00;100301.63;5006437;28;20080;-76
2023/08/09 03:10:08;;;;;;;11.40;2.17;;;;;;;10.77;100.00;100290.66;5006745;28;20022;-78
2023/08/09 03:12:34;;;;;;;24.65;3.05;;;;;;;10.79;100.00;100283.25;5010493;28;20120;-78
2023/08/09 03:15:00;;;;;;;;;;;;;;;10.79;100.00;100291.28;5027199;28;20029;-78
2023/08/09 03:17:25;;;;;;;;;;;;;;;10.72;100.00;100301.00;5011150;28;19940;-76
2023/08/09 03:19:51;;;;;;;9.07;2.45;;;;;;;10.69;100.00;100293.34;5026840;28;19921;-78
2023/08/09 03:22:17;;;;;;;13.13;3.03;;;;;;;10.70;100.00;100300.31;5027441;28;20072;-78
2023/08/09 03:24:42;;;;;;;13.98;2.53;;;;;;;10.69;100.00;100301.34;5009721;28;20116;-76
2023/08/09 03:27:08;;;;;;;8.03;2.47;;;;;;;10.66;100.00;100302.53;5012092;28;20029;-79
2023/08/09 03:29:34;;;;;;;10.23;3.00;;;;;;;10.67;100.00;100309.53;5018303;28;20109;-78
2023/08/09 03:32:00;;;;;;;;;;;;;;;10.70;100.00;100311.88;5027779;28;20252;-77
2023/08/09 03:34:25;;;;;;;;;;;;;;;10.70;100.00;100300.31;5026746;28;19921;-76
2023/08/09 03:36:51;;;;;;;6.70;1.67;;;;;;;10.73;100.00;100318.69;5026953;28;19926;-77
2023/08/09 03:39:16;;;;;;;13.57;2.17;;;;;;;10.75;100.00;100325.53;5011020;28;20401;-77
2023/08/09 03:41:42;;;;;;;14.88;2.83;;;;;;;10.70;100.00;100333.22;5011388;28;20117;-77
2023/08/09 03:44:09;;;;;;;11.50;2.60;;;;;;;10.75;100.00;100330.03;4993881;28;20041;-77
2023/08/09 03:46:34;;;;;;;10.23;3.87;;;;;;;10.74;100.00;100331.84;5010125;28;20034;-78
2023/08/09 03:49:00;;;;;;;;;;;;;;;10.86;100.00;100355.50;5010706;28;20186;-76
2023/08/09 03:51:27;;;;;;;10.93;2.50;;;;;;;10.82;100.00;100355.03;5009636;28;19920;-76
2023/08/09 03:53:53;;;;;;;11.38;2.40;;;;;;;10.81;100.00;100356.03;4996106;28;20022;-77
2023/08/09 03:56:18;;;;;;;15.60;2.47;;;;;;;10.86;100.00;100363.50;4990496;28;20041;-77
2023/08/09 03:58:44;;;;;;;11.83;3.67;;;;;;;11.01;100.00;100372.47;5006864;28;20010;-76
2023/08/09 04:01:09;;;;;;;11.20;2.17;;;;;;;10.95;100.00;100370.50;5025318;28;20408;-77
2023/08/09 04:03:35;;;;;;;10.20;2.40;;;;;;;10.88;100.00;100366.84;5009118;28;20843;-77
2023/08/09 04:06:02;;;;;;;9.70;2.77;;;;;;;10.91;100.00;100367.34;5008972;28;20169;-77
2023/08/09 04:08:30;;;;;;;18.50;2.70;;;;;;;10.92;100.00;100369.00;5007592;28;20065;-76
2023/08/09 04:10:59;;;;;;;14.77;2.47;;;;;;;10.96;100.00;100378.34;5007100;28;20060;-76
2023/08/09 04:13:25;;;;;;;11.57;2.42;;;;;;;11.05;100.00;100375.59;4988425;28;20049;-77
2023/08/09 04:15:51;;;;;;;10.82;2.97;;;;;;;10.89;100.00;100358.69;5025277;28;20488;-76
2023/08/09 04:18:17;;;;;;;13.80;3.38;;;;;;;10.94;100.00;100361.66;5008986;28;20079;-77
2023/08/09 04:20:43;;;;;;;14.77;2.97;;;;;;;10.98;100.00;100357.63;5007100;28;20033;-76
2023/08/09 04:23:09;;;;;;;11.95;3.63;;;;;;;11.05;100.00;100364.94;5007995;28;20288;-77
2023/08/09 04:25:35;;;;;;;13.70;4.32;;;;;;;11.10;100.00;100375.94;5024985;28;20038;-77
2023/08/09 04:28:00;;;;;;;9.35;3.20;;;;;;;11.11;100.00;100373.06;5024227;28;20885;-78
2023/08/09 04:30:25;;;;;;;13.47;2.67;;;;;;;11.12;100.00;100379.25;5007802;28;20044;-78
2023/08/09 04:32:55;;;;;;;11.73;3.20;;;;;;;11.10;100.00;100386.63;5006486;28;20033;-77
2023/08/09 04:35:20;;;;;;;8.30;2.38;;;;;;;11.14;100.00;100378.09;5022054;28;20575;-78
2023/08/09 04:37:46;;;;;;;10.50;2.10;;;;;;;11.13;100.00;100386.28;5007291;28;20076;-78
2023/08/09 04:40:12;;;;;;;15.57;3.30;;;;;;;11.10;100.00;100389.31;5009064;28;20033;-77
2023/08/09 04:42:41;;;;;;;15.60;3.30;;;;;;;11.15;100.00;100386.94;5007142;28;20057;-77
2023/08/09 04:45:10;;;;;;;7.90;3.03;;;;;;;11.16;100.00;100396.59;5006006;28;20467;-76
2023/08/09 04:47:37;;;;;;;14.95;2.17;;;;;;;11.17;100.00;100387.59;5006617;28;20048;-78
2023/08/09 04:50:03;;;;;;;8.95;2.10;;;;;;;11.09;100.00;100384.94;5023094;28;20045;-78
2023/08/09 04:52:29;;;;;;;10.00;2.17;;;;;;;11.12;100.00;100390.78;5023561;28;20040;-78
2023/08/09 04:54:55;;;;;;;14.88;2.72;;;;;;;11.22;100.00;100400.44;5007467;28;20087;-79
2023/08/09 04:57:21;;;;;;;14.25;2.13;;;;;;;11.09;100.00;100400.97;5009936;28;20034;-80
2023/08/09 04:59:46;;;;;;;13.67;2.90;;;;;;;11.12;100.00;100417.50;5007107;28;20488;-80
2023/08/09 05:02:11;;;;;;;13.00;2.37;;;;;;;11.09;100.00;100423.19;5023651;28;20040;-81
2023/08/09 05:04:37;;;;;;;18.53;3.67;;;;;;;10.98;100.00;100424.41;5009280;28;20048;-79
2023/08/09 05:07:04;;;;;;;11.67;2.40;;;;;;;11.11;100.00;100436.38;5018410;28;20038;-81
2023/08/09 05:09:30;;;;;;;15.95;2.40;;;;;;;11.13;100.00;100445.88;5006830;28;20033;-84
2023/08/09 05:11:56;;;;;;;;;;;;;;;11.24;100.00;100441.16;4995428;28;20044;-81
2023/08/09 05:14:22;;;;;;;11.75;2.60;;;;;;;11.14;100.00;100436.00;5007164;28;20343;-83
2023/08/09 05:16:47;;;;;;;15.52;2.85;;;;;;;11.12;100.00;100438.03;5007932;28;20355;-82
2023/08/09 05:19:12;;;;;;;10.20;2.97;;;;;;;11.14;100.00;100447.56;5008155;28;20030;-85
2023/08/09 05:21:38;;;;;;;13.63;2.00;;;;;;;11.07;100.00;100438.53;5007980;28;20030;-85
2023/08/09 05:24:04;;;;;;;11.33;2.17;;;;;;;11.16;100.00;100447.38;5019650;28;20103;-81
2023/08/09 05:26:29;;;;;;;12.30;2.47;;;;;;;11.23;100.00;100455.53;5008708;28;20526;-81
2023/08/09 05:28:54;;;;;;;14.73;3.10;;;;;;;11.25;100.00;100454.34;5008163;28;20048;-81
2023/08/09 05:31:20;;;;;;;10.33;2.27;;;;;;;11.20;100.00;100460.22;5007929;28;20117;-79
2023/08/09 05:33:45;;;;;;;15.77;2.87;;;;;;;11.09;100.00;100455.25;5011200;28;20503;-80
2023/08/09 05:36:11;;;;;;;8.52;2.45;;;;;;;11.16;100.00;100461.56;5006942;28;20177;-80
2023/08/09 05:38:36;;;;;;;7.27;2.33;;;;;;;11.22;100.00;100460.03;5007935;28;20037;-80
2023/08/09 05:41:01;;;;;;;12.73;2.40;;;;;;;11.19;100.00;100468.38;5010418;28;20053;-82
2023/08/09 05:43:27;;;;;;;15.07;3.27;;;;;;;11.19;100.00;100469.25;5007492;28;20041;-83
2023/08/09 05:45:52;;;;;;;10.93;3.30;;;;;;;11.20;100.00;100472.75;5019183;28;20400;-81
2023/08/09 05:48:17;;;;;;;9.85;2.97;;;;;;;11.24;100.00;100458.03;5018153;28;20076;-80
2023/08/09 05:50:43;;;;;;;7.00;2.00;;;;;;;11.19;100.00;100455.03;5005441;28;20034;-81
2023/08/09 05:53:09;;;;;;;12.60;2.73;;;;;;;11.37;100.00;100463.63;5001607;28;20038;-80
2023/08/09 05:55:35;;;;;;;;;;;;;;;11.38;100.00;100465.31;4991673;28;20037;-78
2023/08/09 05:58:00;;;;;;;;;;;;;;;11.46;100.00;100468.94;4986746;28;20383;-80
2023/08/09 06:00:25;;;;;;;14.57;2.00;;;;;;;11.24;100.00;100462.53;5004522;28;19921;-80
2023/08/09 06:02:52;;;;;;;12.17;3.67;;;;;;;11.37;100.00;100463.63;5021732;28;20061;-78
2023/08/09 06:05:23;;;;;;;16.77;3.30;;;;;;;11.53;100.00;100462.72;4988389;28;20128;-79
2023/08/09 06:07:49;;;;;;;14.63;2.47;;;;;;;11.66;100.00;100466.66;5007929;28;20044;-76
2023/08/09 06:10:14;;;;;;;7.93;2.10;;;;;;;11.98;100.00;100466.47;5022649;28;20029;-78
2023/08/09 06:12:40;;;;;;;9.40;2.23;;;;;;;11.92;100.00;100456.50;5005839;28;20033;-78
2023/08/09 06:15:06;;;;;;;15.57;2.43;;;;;;;11.95;100.00;100449.97;5014807;28;20562;-77
2023/08/09 06:17:31;;;;;;;8.23;2.08;;;;;;;12.08;100.00;100460.91;5008165;28;20083;-77
2023/08/09 06:19:59;;;;;;;12.90;3.10;;;;;;;12.18;100.00;100448.09;5011686;28;20021;-78
2023/08/09 06:22:25;;;;;;;14.00;2.55;;;;;;;12.14;100.00;100448.63;5009047;28;20042;-77
2023/08/09 06:24:50;;;;;;;12.30;1.90;;;;;;;12.37;100.00;100459.31;5002099;28;20493;-75
2023/08/09 06:27:15;;;;;;;13.90;2.30;;;;;;;12.24;100.00;100447.38;5028525;28;20591;-76
2023/08/09 06:29:41;;;;;;;15.07;2.30;;;;;;;12.01;100.00;100439.38;5025934;28;20117;-77
2023/08/09 06:32:06;;;;;;;12.93;1.97;;;;;;;12.18;100.00;100453.44;5002890;28;20100;-77
2023/08/09 06:34:32;;;;;;;6.28;2.15;;;;;;;12.08;100.00;100442.19;5010237;28;20030;-77
2023/08/09 06:36:57;;;;;;;13.67;3.83;;;;;;;12.24;100.00;100454.56;5006610;23;20481;-90
2023/08/09 06:39:23;;;;;;;3.13;1.50;;;;;;;12.41;100.00;100471.34;4975603;28;20038;-90
2023/08/09 06:41:48;;;;;;;11.67;2.43;;;;;;;12.62;100.00;100482.19;4971524;28;20291;-89
2023/08/09 06:44:15;;;;;;;6.40;1.90;;;;;;;12.82;100.00;100463.72;4976772;28;20633;-89
2023/08/09 06:46:40;;;;;;;11.07;2.22;;;;;;;13.23;100.00;100470.47;4986691;28;20060;-90
2023/08/09 06:49:05;;;;;;;11.57;2.80;;;;;;;13.48;100.00;100465.63;5021027;28;20496;-90
2023/08/09 06:51:31;;;;;;;9.67;2.80;;;;;;;13.41;100.00;100468.22;5021694;28;20388;-91
2023/08/09 06:53:56;;;;;;;16.23;2.60;;;;;;;13.18;100.00;100446.03;4990228;28;20068;-90
2023/08/09 06:56:21;;;;;;;10.37;1.83;;;;;;;13.15;100.00;100467.88;5025264;28;20041;-90
2023/08/09 06:58:47;;;;;;;14.17;2.50;;;;;;;13.12;100.00;100469.06;5014111;28;20099;-91
2023/08/09 07:01:12;;;;;;;11.13;2.00;;;;;;;13.06;100.00;100457.25;5009324;28;20045;-90
2023/08/09 07:03:38;;;;;;;11.13;1.90;;;;;;;13.27;100.00;100477.09;5014426;28;20041;-91
2023/08/09 07:06:03;;;;;;;19.07;4.90;;;;;;;13.36;100.00;100483.22;4985016;28;20065;-91
2023/08/09 07:08:29;;;;;;;9.82;2.38;;;;;;;13.37;100.00;100474.16;5007339;28;20104;-90
2023/08/09 07:10:55;;;;;;;11.27;2.22;;;;;;;13.62;100.00;100474.66;5032340;28;20403;-91
2023/08/09 07:13:21;;;;;;;;;;;;;;;13.73;100.00;100472.31;5020775;28;20021;-90
2023/08/09 07:15:46;;;;;;;20.50;3.35;;;;;;;14.06;100.00;100484.41;4988759;28;19922;-91
2023/08/09 07:18:11;;;;;;;13.87;3.07;;;;;;;15.04;100.00;100489.97;5021722;28;20084;-90
2023/08/09 07:20:37;;;;;;;11.93;2.03;;;;;;;15.84;100.00;100456.16;5017987;28;20034;-91
2023/08/09 07:23:02;;;;;;;7.47;2.13;;;;;;;16.07;100.00;100376.88;4975318;28;20037;-90
2023/08/09 07:25:27;;;;;;;10.47;1.80;;;;;;;16.61;100.00;100348.81;4985322;28;20034;-91
2023/08/09 07:27:53;;;;;;;11.77;2.63;;;;;;;16.23;100.00;100298.34;5021514;28;20030;-90
2023/08/09 07:30:19;;;;;;;17.20;3.30;;;;;;;16.12;100.00;100285.53;5014330;28;20037;-90
2023/08/09 07:32:47;;;;;;;13.25;2.33;;;;;;;15.91;100.00;100228.19;5024728;28;20021;-90
2023/08/09 07:35:13;;;;;;;16.33;3.05;;;;;;;16.19;100.00;100241.38;5020376;28;20499;-91
2023/08/09 07:37:41;;;;;;;13.15;2.05;;;;;;;16.39;100.00;100233.22;5011455;28;20079;-91
2023/08/09 07:40:07;;;;;;;16.63;2.88;;;;;;;16.23;100.00;100147.53;5028364;28;20042;-91
2023/08/09 07:42:34;;;;;;;;;;;;;;;15.94;100.00;100146.97;5007351;28;20072;-90
2023/08/09 07:44:59;;;;;;;10.93;2.47;;;;;;;15.73;100.00;100166.09;4994982;28;19920;-91
2023/08/09 07:47:24;;;;;;;14.13;2.30;;;;;;;15.95;100.00;100218.66;5021974;28;20022;-90
2023/08/09 07:49:50;;;;;;;10.63;2.67;;;;;;;16.20;100.00;100182.94;5002454;28;20029;-91
2023/08/09 07:52:15;;;;;;;5.87;1.93;;;;;;;16.17;100.00;100127.63;5001927;28;20037;-91
2023/08/09 07:54:41;;;;;;;19.67;2.60;;;;;;;16.39;100.00;100132.75;4995759;28;20787;-92
2023/08/09 07:57:06;;;;;;;10.57;3.40;;;;;;;17.47;100.00;100129.84;5027177;28;20037;-92
2023/08/09 07:59:31;;;;;;;16.77;3.53;;;;;;;18.43;100.00;99981.56;5027237;28;20123;-91
2023/08/09 08:01:57;;;;;;;16.03;3.60;;;;;;;17.55;100.00;99818.38;5006310;28;20030;-92
2023/08/09 08:04:22;;;;;;;9.27;2.30;;;;;;;17.02;100.00;99676.22;5008080;28;20061;-92
2023/08/09 08:06:48;;;;;;;15.17;2.27;;;;;;;17.09;100.00;99760.53;4998625;28;21421;-90
2023/08/09 08:09:14;;;;;;;;;;;;;;;17.83;100.00;99857.44;5022953;28;20038;-91
2023/08/09 08:11:40;;;;;;;18.13;3.65;;;;;;;17.70;100.00;99602.84;4992662;28;19913;-91
2023/08/09 08:14:06;;;;;;;;;;;;;;;17.66;100.00;99457.81;4992446;28;20041;-91
2023/08/09 08:16:32;;;;;;;12.70;2.90;;;;;;;18.23;100.00;99754.13;5027315;28;20429;-91
2023/08/09 08:18:57;;;;;;;10.23;2.30;;;;;;;17.64;100.00;99670.44;5032205;28;20116;-91
2023/08/09 08:21:22;;;;;;;18.33;3.20;;;;;;;17.75;100.00;99626.41;5023267;28;20284;-91
2023/08/09 08:23:48;;;;;;;7.83;1.80;;;;;;;18.00;100.00;99412.81;4996068;28;20727;-92
2023/08/09 08:26:15;;;;;;;11.10;2.93;;;;;;;18.10;100.00;99529.16;5007776;28;20042;-91
2023/08/09 08:28:40;;;;;;;9.68;2.35;;;;;;;18.05;100.00;99526.34;4990018;28;20072;-91
2023/08/09 08:31:07;;;;;;;15.75;3.50;;;;;;;17.20;100.00;99495.44;5030697;28;20033;-91
2023/08/09 08:33:34;;;;;;;11.18;2.08;;;;;;;16.47;100.00;99566.72;5030699;28;20037;-92
2023/08/09 08:35:59;;;;;;;8.93;2.75;;;;;;;16.66;100.00;99711.09;5020683;28;20029;-91
2023/08/09 08:38:25;;;;;;;13.27;3.05;;;;;;;16.21;100.00;99571.41;5000151;28;20029;-91
2023/08/09 08:40:52;;;;;;;11.73;2.83;;;;;;;16.33;100.00;99675.69;4998335;28;20026;-91
2023/08/09 08:43:17;;;;;;;18.33;2.55;;;;;;;16.24;100.00;99720.94;5016922;28;20110;-92
2023/08/09 08:45:47;;;;;;;9.43;1.87;;;;;;;16.98;100.00;99780.19;5021732;28;20033;-91
2023/08/09 08:48:13;;;;;;;14.40;3.47;;;;;;;17.58;100.00;99533.72;5031845;28;20086;-90
2023/08/09 08:50:41;;;;;;;12.85;1.95;;;;;;;18.51;100.00;99610.94;5020560;28;20040;-91
2023/08/09 08:53:08;;;;;;;11.07;2.38;;;;;;;18.77;100.00;99214.00;5000934;28;20048;-92
2023/08/09 08:55:33;;;;;;;;;;;;;;;18.50;100.00;99058.03;5021557;28;20026;-91
2023/08/09 08:57:59;;;;;;;9.70;2.10;;;;;;;18.00;100.00;99005.09;5040457;28;19920;-91
2023/08/09 09:00:24;;;;;;;7.95;2.05;;;;;;;18.25;100.00;99184.72;5027794;28;20029;-91
2023/08/09 09:02:50;;;;;;;10.32;1.95;;;;;;;17.96;100.00;98979.69;5020965;28;20037;-92
2023/08/09 09:05:16;;;;;;;6.30;1.70;;;;;;;17.33;100.00;98854.31;4994711;28;20022;-93
2023/08/09 09:07:45;;;;;;;11.82;1.83;;;;;;;17.21;100.00;99272.44;4993046;28;20042;-92
2023/08/09 09:10:12;;;;;;;10.18;1.90;;;;;;;16.76;100.00;99403.31;5009814;28;20025;-91
2023/08/09 09:12:38;;;;;;;12.82;2.25;;;;;;;17.05;100.00;99683.84;5009944;28;20072;-91
2023/08/09 09:15:06;;;;;;;7.05;2.10;;;;;;;16.78;100.00;99729.19;5011587;28;20025;-90
2023/08/09 09:17:42;;;;;;;9.20;2.22;;;;;;;16.62;100.00;99533.94;5024852;28;20167;-93
2023/08/09 09:20:21;;;;;;;11.88;2.00;;;;;;;16.83;100.00;99552.31;5024664;28;20033;-88
2023/08/09 09:22:46;;;;;;;9.32;2.22;;;;;;;17.03;100.00;99578.09;5028947;28;20095;-92
2023/08/09 09:25:14;;;;;;;13.25;2.22;;;;;;;17.04;100.00;99455.72;5010210;28;20088;-92
2023/08/09 09:27:40;;;;;;;11.30;1.90;;;;;;;17.46;100.00;99668.66;5037384;28;20667;-91
2023/08/09 09:30:14;;;;;;;9.10;1.88;;;;;;;17.83;100.00;99708.94;5016511;28;20025;-93
2023/08/09 09:33:00;;;;;;;8.82;2.13;;;;;;;18.18;100.00;99816.97;5013781;28;20037;-92
2023/08/09 09:35:28;;;;;;;9.10;1.92;;;;;;;18.37;100.00;99506.91;4991800;28;20053;-91
2023/08/09 09:37:58;;;;;;;11.63;2.08;;;;;;;18.84;100.00;99352.50;5023967;28;20022;-92
2023/08/09 09:40:35;;;;;;;8.18;1.90;;;;;;;18.55;100.00;99428.31;4985273;28;20087;-90
2023/08/09 09:43:01;;;;;;;9.57;2.30;;;;;;;17.91;100.00;99385.41;5000103;28;20026;-94
2023/08/09 09:45:30;;;;;;;8.68;2.28;;;;;;;17.53;100.00;99383.34;5008778;28;20159;-91
2023/08/09 09:48:00;;;;;;;9.23;2.30;;;;;;;17.33;100.00;99458.50;4995828;28;20040;-92
2023/08/09 09:50:30;;;;;;;7.65;2.10;;;;;;;17.03;100.00;99599.69;5036188;28;20846;-93
2023/08/09 09:52:56;;;;;;;11.32;2.70;;;;;;;16.81;100.00;99619.09;5029873;28;20063;-93
2023/08/09 09:55:27;;;;;;;13.67;2.17;;;;;;;16.49;100.00;99798.19;5036938;28;20025;-93
2023/08/09 09:57:54;;;;;;;10.43;2.10;;;;;;;16.35;100.00;99803.69;5002040;28;20132;-92
2023/08/09 10:00:20;;;;;;;11.05;2.15;;;;;;;15.99;100.00;99754.16;5027617;28;20104;-92
2023/08/09 10:02:48;;;;;;;10.15;2.28;;;;;;;15.76;100.00;100031.97;5000929;28;20410;-92
2023/08/09 10:05:23;;;;;;;11.70;2.00;;;;;;;15.85;100.00;100417.47;5003653;28;20041;-92
2023/08/09 10:07:51;;;;;;;9.32;2.10;;;;;;;16.23;100.00;100595.44;4989038;28;20117;-92
2023/08/09 10:10:17;;;;;;;13.85;3.53;;;;;;;16.85;100.00;100580.00;5023953;28;20061;-88
2023/08/09 10:12:55;;;;;;;12.27;2.45;;;;;;;18.18;100.00;100353.75;5033312;28;20041;-91
2023/08/09 10:15:53;;;;;;;7.78;1.77;;;;;;;18.37;100.00;99985.19;5036474;28;20037;-92
2023/08/09 10:18:26;;;;;;;8.48;1.58;;;;;;;18.17;100.00;99825.28;4915209;29;20082;-92
2023/08/09 10:20:55;;;;;;;9.23;1.95;;;;;;;18.89;100.00;99854.75;4928747;29;20066;-92
2023/08/09 10:23:21;;;;;;;8.95;2.13;;;;;;;19.42;100.00;99722.91;4908893;29;20074;-93
2023/08/09 10:25:48;;;;;;;11.25;1.58;;;;;;;20.20;100.00;99532.22;4914458;29;20044;-92
2023/08/09 10:28:13;;;;;;;;;;;;;;;20.74;100.00;99496.13;4896259;29;20036;-92
2023/08/09 10:30:47;;;;;;;13.25;2.20;;;;;;;21.51;98.75;99488.47;4918108;29;19938;-93
2023/08/09 10:33:19;;;;;;;13.38;3.03;;;;;;;20.75;94.43;99101.03;4900106;29;20178;-92
2023/08/09 10:35:52;;;;;;;11.02;2.25;;;;;;;20.65;94.63;99137.09;4910797;28;20085;-92
2023/08/09 10:38:31;;;;;;;12.23;2.28;;;;;;;19.49;95.11;99030.66;4940301;29;20031;-91
2023/08/09 10:40:57;;;;;;;12.98;2.15;;;;;;;18.55;100.00;99333.72;4955743;28;20065;-92
2023/08/09 10:43:25;;;;;;;14.05;3.30;;;;;;;18.19;100.00;99361.28;4935562;29;20520;-92
2023/08/09 10:45:53;;;;;;;12.93;3.65;;;;;;;19.39;100.00;99530.16;4936141;29;20039;-93
2023/08/09 10:48:28;;;;;;;9.27;2.65;;;;;;;18.66;100.00;99266.28;4943524;28;20042;-91
2023/08/09 10:51:18;;;;;;;8.45;2.50;;;;;;;18.99;96.47;99135.56;4944513;29;20050;-91
2023/08/09 10:53:58;;;;;;;11.05;2.00;;;;;;;19.46;100.00;99683.44;4936586;28;20133;-92
2023/08/09 10:56:45;;;;;;;9.60;3.30;;;;;;;20.63;100.00;99845.06;5015256;28;20040;-91
2023/08/09 10:59:21;;;;;;;9.70;2.55;;;;;;;20.98;91.30;99238.06;5040939;28;20025;-91
2023/08/09 11:01:49;;;;;;;14.05;2.63;;;;;;;20.49;94.62;99475.03;5014253;28;20261;-92
2023/08/09 11:04:17;;;;;;;14.43;2.45;;;;;;;19.50;96.17;99281.28;5010862;28;20531;-91
2023/08/09 11:06:45;;;;;;;10.88;2.33;;;;;;;19.42;95.47;99303.41;5033696;28;20499;-92
2023/08/09 11:09:12;;;;;;;13.43;2.60;;;;;;;18.90;93.54;99059.50;5029088;28;20037;-93
2023/08/09 11:11:40;;;;;;;11.70;2.45;;;;;;;19.37;95.70;99423.25;5021892;28;20511;-92
2023/08/09 11:14:07;;;;;;;9.85;2.78;;;;;;;19.75;83.59;98572.19;5036961;28;20544;-92
2023/08/09 11:16:33;;;;;;;12.55;3.17;;;;;;;20.68;80.69;98612.44;5018015;28;20047;-91
2023/08/09 11:19:03;;;;;;;9.80;3.00;;;;;;;20.31;77.64;98293.97;5032393;28;20111;-92